createdAt,value
2018-09-21T00:00:32.859Z,88.07
2018-09-21T00:01:34.240Z,88.17
2018-09-21T00:02:35.626Z,87.98
2018-09-21T00:03:37.006Z,87.98
2018-09-21T00:04:38.395Z,88.07
2018-09-21T00:05:40.640Z,88.17
2018-09-21T00:06:42.029Z,88.17
2018-09-21T00:07:43.413Z,88.17
2018-09-21T00:08:44.805Z,88.26
2018-09-21T00:09:46.181Z,88.07
2018-09-21T00:10:47.587Z,88.17
2018-09-21T00:11:48.964Z,88.17
2018-09-21T00:12:50.351Z,88.26
2018-09-21T00:13:51.733Z,88.17
2018-09-21T00:14:53.131Z,88.45
2018-09-21T00:15:54.507Z,88.35
2018-09-21T00:16:55.895Z,88.17
2018-09-21T00:17:57.281Z,88.17
2018-09-21T00:19:00.989Z,88.12
2018-09-21T00:20:03.569Z,88.07
2018-09-21T00:21:04.951Z,88.26
2018-09-21T00:22:06.335Z,88.17
2018-09-21T00:23:07.736Z,87.78
2018-09-21T00:24:09.106Z,87.88
2018-09-21T00:25:11.264Z,87.88
2018-09-21T00:26:12.662Z,87.59
2018-09-21T00:27:14.914Z,87.49
2018-09-21T00:28:17.030Z,87.88
2018-09-21T00:29:18.420Z,87.49
2018-09-21T00:30:21.915Z,87.30
2018-09-21T00:31:23.288Z,87.88
2018-09-21T00:32:24.659Z,87.59
2018-09-21T00:33:26.056Z,87.40
2018-09-21T00:34:27.446Z,87.49
2018-09-21T00:35:28.829Z,87.98
2018-09-21T00:36:30.211Z,87.49
2018-09-21T00:37:31.599Z,87.68
2018-09-21T00:38:32.991Z,87.49
2018-09-21T00:39:34.376Z,87.49
2018-09-21T00:40:35.764Z,87.40
2018-09-21T00:41:37.967Z,87.68
2018-09-21T00:42:40.214Z,87.30
2018-09-21T00:43:42.147Z,87.49
2018-09-21T00:44:43.534Z,87.30
2018-09-21T00:45:44.919Z,87.49
2018-09-21T00:46:46.300Z,87.74
2018-09-21T00:47:47.687Z,87.84
2018-09-21T00:48:49.069Z,87.84
2018-09-21T00:49:50.452Z,87.45
2018-09-21T00:50:52.490Z,87.84
2018-09-21T00:51:54.833Z,88.02
2018-09-21T00:52:56.220Z,87.93
2018-09-21T00:53:57.597Z,88.02
2018-09-21T00:54:58.990Z,87.55
2018-09-21T00:56:00.372Z,87.93
2018-09-21T00:57:01.751Z,87.93
2018-09-21T00:58:04.320Z,88.12
2018-09-21T00:59:05.708Z,88.41
2018-09-21T01:00:07.099Z,88.02
2018-09-21T01:01:08.492Z,87.84
2018-09-21T01:02:09.878Z,88.12
2018-09-21T01:03:11.256Z,87.84
2018-09-21T01:04:13.262Z,88.12
2018-09-21T01:05:14.652Z,88.12
2018-09-21T01:06:16.038Z,88.22
2018-09-21T01:07:17.448Z,88.22
2018-09-21T01:08:20.125Z,88.22
2018-09-21T01:09:21.513Z,87.55
2018-09-21T01:10:22.902Z,87.93
2018-09-21T01:11:24.297Z,87.84
2018-09-21T01:12:25.677Z,87.45
2018-09-21T01:13:27.054Z,87.84
2018-09-21T01:14:28.447Z,87.93
2018-09-21T01:15:29.831Z,87.84
2018-09-21T01:16:31.222Z,87.84
2018-09-21T01:17:32.599Z,87.74
2018-09-21T01:18:33.997Z,87.55
2018-09-21T01:19:38.283Z,88.02
2018-09-21T01:20:39.585Z,87.45
2018-09-21T01:21:40.982Z,87.74
2018-09-21T01:22:42.383Z,87.45
2018-09-21T01:23:43.760Z,87.74
2018-09-21T01:24:45.150Z,87.84
2018-09-21T01:25:48.790Z,87.45
2018-09-21T01:26:49.186Z,88.12
2018-09-21T01:27:52.002Z,87.84
2018-09-21T01:28:53.397Z,87.84
2018-09-21T01:29:55.534Z,87.45
2018-09-21T01:30:56.917Z,87.45
2018-09-21T01:32:00.946Z,87.45
2018-09-21T01:33:03.280Z,87.84
2018-09-21T01:34:04.656Z,87.55
2018-09-21T01:35:06.041Z,87.26
2018-09-21T01:36:07.425Z,87.45
2018-09-21T01:37:08.814Z,87.16
2018-09-21T01:38:10.208Z,87.45
2018-09-21T01:39:12.843Z,87.07
2018-09-21T01:40:14.224Z,86.97
2018-09-21T01:41:15.604Z,87.07
2018-09-21T01:42:17.529Z,88.02
2018-09-21T01:43:18.921Z,87.07
2018-09-21T01:44:20.313Z,87.64
2018-09-21T01:45:22.792Z,87.93
2018-09-21T01:46:23.709Z,87.35
2018-09-21T01:47:25.075Z,87.45
2018-09-21T01:48:26.473Z,87.35
2018-09-21T01:49:27.855Z,87.45
2018-09-21T01:50:30.134Z,87.84
2018-09-21T01:51:31.494Z,87.93
2018-09-21T01:52:33.858Z,87.84
2018-09-21T01:53:35.241Z,87.45
2018-09-21T01:54:36.621Z,87.93
2018-09-21T01:55:39.670Z,87.64
2018-09-21T01:56:41.941Z,87.64
2018-09-21T01:57:44.786Z,87.45
2018-09-21T01:58:46.968Z,87.93
2018-09-21T01:59:48.338Z,87.93
2018-09-21T02:00:49.722Z,87.26
2018-09-21T02:01:51.100Z,87.45
2018-09-21T02:02:52.490Z,87.84
2018-09-21T02:03:55.492Z,87.64
2018-09-21T02:04:56.875Z,87.55
2018-09-21T02:05:58.258Z,87.74
2018-09-21T02:06:59.636Z,87.45
2018-09-21T02:08:02.303Z,87.64
2018-09-21T02:09:04.192Z,87.64
2018-09-21T02:10:05.531Z,87.45
2018-09-21T02:11:06.919Z,87.74
2018-09-21T02:12:09.301Z,87.64
2018-09-21T02:13:11.251Z,87.45
2018-09-21T02:14:12.628Z,87.45
2018-09-21T02:15:14.011Z,87.26
2018-09-21T02:16:15.413Z,87.55
2018-09-21T02:17:16.784Z,87.45
2018-09-21T02:18:18.171Z,87.45
2018-09-21T02:19:19.560Z,87.64
2018-09-21T02:20:20.942Z,87.45
2018-09-21T02:21:22.323Z,87.26
2018-09-21T02:22:23.702Z,87.84
2018-09-21T02:23:26.512Z,87.84
2018-09-21T02:24:28.814Z,87.79
2018-09-21T02:25:29.219Z,87.64
2018-09-21T02:26:30.596Z,87.93
2018-09-21T02:27:31.988Z,87.93
2018-09-21T02:28:33.372Z,87.88
2018-09-21T02:29:34.750Z,87.93
2018-09-21T02:30:36.126Z,88.22
2018-09-21T02:31:38.830Z,87.84
2018-09-21T02:32:42.387Z,88.27
2018-09-21T02:33:43.780Z,88.17
2018-09-21T02:34:45.886Z,88.17
2018-09-21T02:35:49.011Z,88.17
2018-09-21T02:36:50.399Z,88.46
2018-09-21T02:37:52.897Z,88.46
2018-09-21T02:38:54.284Z,88.08
2018-09-21T02:39:55.667Z,87.88
2018-09-21T02:40:57.684Z,87.88
2018-09-21T02:41:59.063Z,88.27
2018-09-21T02:43:00.460Z,88.46
2018-09-21T02:44:01.844Z,88.27
2018-09-21T02:45:03.245Z,87.98
2018-09-21T02:46:04.619Z,88.37
2018-09-21T02:47:06.008Z,87.88
2018-09-21T02:48:07.397Z,88.08
2018-09-21T02:49:08.776Z,88.17
2018-09-21T02:50:10.960Z,88.17
2018-09-21T02:51:14.134Z,88.08
2018-09-21T02:52:15.519Z,88.27
2018-09-21T02:53:16.902Z,88.37
2018-09-21T02:54:18.295Z,88.37
2018-09-21T02:55:19.668Z,87.98
2018-09-21T02:56:21.070Z,88.08
2018-09-21T02:57:22.450Z,87.70
2018-09-21T02:58:23.837Z,88.08
2018-09-21T02:59:25.222Z,87.50
2018-09-21T03:00:26.682Z,87.70
2018-09-21T03:01:28.609Z,87.50
2018-09-21T03:02:29.996Z,87.60
2018-09-21T03:03:31.383Z,87.60
2018-09-21T03:04:32.771Z,87.41
2018-09-21T03:05:35.011Z,87.02
2018-09-21T03:06:37.165Z,87.12
2018-09-21T03:07:39.415Z,87.21
2018-09-21T03:08:40.819Z,87.41
2018-09-21T03:09:42.195Z,87.31
2018-09-21T03:10:43.580Z,87.50
2018-09-21T03:11:44.968Z,87.41
2018-09-21T03:12:46.355Z,87.50
2018-09-21T03:13:47.740Z,87.31
2018-09-21T03:14:49.120Z,87.41
2018-09-21T03:15:52.962Z,87.31
2018-09-21T03:16:54.875Z,87.02
2018-09-21T03:17:56.826Z,87.50
2018-09-21T03:18:57.590Z,87.79
2018-09-21T03:19:58.970Z,87.41
2018-09-21T03:21:00.348Z,87.41
2018-09-21T03:22:01.728Z,87.41
2018-09-21T03:23:03.134Z,87.31
2018-09-21T03:24:04.512Z,87.46
2018-09-21T03:25:05.900Z,87.50
2018-09-21T03:26:07.286Z,87.31
2018-09-21T03:27:08.662Z,87.50
2018-09-21T03:28:10.051Z,87.31
2018-09-21T03:29:11.441Z,87.31
2018-09-21T03:30:12.819Z,87.41
2018-09-21T03:31:14.210Z,87.41
2018-09-21T03:32:15.588Z,87.31
2018-09-21T03:33:16.973Z,87.41
2018-09-21T03:34:18.369Z,87.37
2018-09-21T03:35:19.832Z,87.55
2018-09-21T03:36:21.100Z,87.02
2018-09-21T03:37:22.483Z,87.37
2018-09-21T03:38:23.865Z,87.55
2018-09-21T03:39:25.253Z,87.27
2018-09-21T03:40:26.643Z,87.46
2018-09-21T03:41:28.024Z,87.46
2018-09-21T03:42:29.407Z,86.98
2018-09-21T03:43:30.792Z,87.74
2018-09-21T03:44:32.176Z,86.98
2018-09-21T03:45:33.568Z,87.27
2018-09-21T03:46:34.956Z,86.88
2018-09-21T03:47:36.348Z,87.46
2018-09-21T03:48:37.732Z,87.84
2018-09-21T03:49:39.114Z,87.46
2018-09-21T03:50:40.497Z,87.74
2018-09-21T03:51:41.884Z,87.46
2018-09-21T03:52:43.258Z,87.94
2018-09-21T03:53:44.653Z,87.65
2018-09-21T03:54:46.048Z,87.37
2018-09-21T03:55:47.421Z,87.55
2018-09-21T03:56:48.802Z,87.37
2018-09-21T03:57:50.183Z,87.37
2018-09-21T03:58:51.569Z,87.37
2018-09-21T03:59:52.958Z,87.27
2018-09-21T04:00:54.354Z,87.65
2018-09-21T04:01:55.725Z,87.37
2018-09-21T04:02:57.116Z,87.55
2018-09-21T04:03:58.495Z,87.55
2018-09-21T04:04:59.881Z,87.55
2018-09-21T04:06:01.267Z,87.37
2018-09-21T04:07:02.653Z,87.46
2018-09-21T04:08:04.037Z,87.65
2018-09-21T04:09:05.421Z,87.94
2018-09-21T04:10:06.824Z,87.74
2018-09-21T04:11:08.192Z,87.74
2018-09-21T04:12:09.581Z,87.65
2018-09-21T04:13:10.963Z,87.37
2018-09-21T04:14:12.337Z,86.88
2018-09-21T04:15:13.725Z,87.17
2018-09-21T04:16:15.112Z,87.27
2018-09-21T04:17:16.505Z,87.46
2018-09-21T04:18:17.881Z,87.08
2018-09-21T04:19:19.278Z,87.27
2018-09-21T04:20:20.656Z,87.27
2018-09-21T04:21:22.046Z,86.60
2018-09-21T04:22:23.431Z,86.79
2018-09-21T04:23:24.810Z,86.79
2018-09-21T04:24:26.194Z,87.17
2018-09-21T04:25:27.579Z,87.17
2018-09-21T04:26:28.966Z,86.69
2018-09-21T04:27:30.356Z,87.17
2018-09-21T04:28:31.736Z,87.08
2018-09-21T04:29:33.135Z,86.60
2018-09-21T04:30:34.530Z,86.69
2018-09-21T04:31:35.904Z,86.79
2018-09-21T04:32:37.291Z,86.69
2018-09-21T04:33:38.700Z,86.79
2018-09-21T04:34:40.085Z,86.79
2018-09-21T04:35:41.537Z,86.69
2018-09-21T04:36:42.857Z,86.69
2018-09-21T04:37:44.241Z,86.69
2018-09-21T04:38:45.629Z,86.41
2018-09-21T04:39:47.019Z,86.41
2018-09-21T04:40:48.407Z,86.41
2018-09-21T04:41:49.795Z,86.41
2018-09-21T04:42:51.181Z,86.50
2018-09-21T04:43:52.567Z,86.02
2018-09-21T04:44:53.951Z,86.31
2018-09-21T04:45:55.381Z,86.12
2018-09-21T04:46:56.692Z,86.31
2018-09-21T04:47:58.076Z,86.21
2018-09-21T04:48:59.460Z,85.74
2018-09-21T04:50:00.842Z,85.54
2018-09-21T04:51:02.228Z,85.54
2018-09-21T04:52:03.620Z,85.45
2018-09-21T04:53:04.996Z,85.64
2018-09-21T04:54:06.386Z,85.54
2018-09-21T04:55:07.780Z,85.74
2018-09-21T04:56:09.158Z,85.16
2018-09-21T04:57:10.566Z,85.06
2018-09-21T04:58:11.934Z,84.78
2018-09-21T04:59:13.323Z,84.68
2018-09-21T05:00:14.701Z,85.35
2018-09-21T05:01:16.093Z,85.06
2018-09-21T05:02:17.476Z,84.68
2018-09-21T05:03:18.864Z,85.11
2018-09-21T05:04:20.280Z,84.15
2018-09-21T05:05:21.653Z,84.15
2018-09-21T05:06:23.035Z,84.44
2018-09-21T05:07:25.387Z,84.44
2018-09-21T05:08:26.784Z,84.44
2018-09-21T05:09:28.162Z,83.76
2018-09-21T05:10:29.551Z,83.76
2018-09-21T05:11:30.939Z,83.86
2018-09-21T05:12:32.329Z,83.95
2018-09-21T05:13:33.768Z,83.29
2018-09-21T05:14:35.109Z,83.19
2018-09-21T05:15:36.490Z,83.38
2018-09-21T05:16:37.905Z,83.19
2018-09-21T05:17:39.293Z,83.58
2018-09-21T05:18:40.686Z,83.29
2018-09-21T05:19:42.085Z,83.29
2018-09-21T05:20:43.466Z,83.29
2018-09-21T05:21:44.855Z,83.48
2018-09-21T05:22:46.248Z,83.67
2018-09-21T05:23:47.632Z,83.48
2018-09-21T05:24:49.018Z,83.48
2018-09-21T05:25:50.408Z,83.38
2018-09-21T05:26:51.803Z,83.38
2018-09-21T05:27:53.197Z,83.19
2018-09-21T05:28:54.585Z,83.09
2018-09-21T05:29:55.969Z,82.81
2018-09-21T05:30:57.358Z,83.00
2018-09-21T05:31:58.744Z,83.00
2018-09-21T05:33:00.148Z,83.04
2018-09-21T05:34:02.663Z,83.29
2018-09-21T05:35:04.109Z,82.90
2018-09-21T05:36:05.371Z,83.00
2018-09-21T05:37:06.771Z,82.85
2018-09-21T05:38:08.170Z,82.85
2018-09-21T05:39:09.581Z,82.56
2018-09-21T20:40:10.572Z,99.99
2018-09-21T20:41:13.493Z,99.99
2018-09-21T20:42:14.841Z,99.99
2018-09-21T20:43:16.253Z,99.99
2018-09-21T20:44:18.573Z,99.99
2018-09-21T20:45:19.620Z,99.99
2018-09-21T20:46:20.966Z,99.99
2018-09-21T20:47:22.365Z,99.99
2018-09-21T20:48:24.723Z,99.99
2018-09-21T20:49:26.132Z,99.99
2018-09-21T20:50:27.527Z,99.99
2018-09-21T20:51:29.506Z,99.99
2018-09-21T20:52:30.905Z,99.99
2018-09-21T20:53:33.212Z,99.99
2018-09-21T20:54:34.604Z,99.99
2018-09-21T20:55:35.990Z,99.99
2018-09-21T20:56:37.381Z,99.99
2018-09-21T20:57:38.761Z,99.99
2018-09-21T20:58:40.155Z,99.99
2018-09-21T20:59:41.542Z,99.99
2018-09-21T21:00:42.890Z,99.99
2018-09-21T21:01:44.269Z,99.99
2018-09-21T21:02:45.662Z,99.99
2018-09-21T21:03:48.858Z,99.99
2018-09-21T21:04:50.756Z,99.99
2018-09-21T21:05:52.158Z,99.99
2018-09-21T21:06:53.542Z,99.99
2018-09-21T21:07:54.927Z,99.99
2018-09-21T21:08:56.311Z,99.99
2018-09-21T21:09:57.713Z,99.99
2018-09-21T21:11:00.000Z,99.99
2018-09-21T21:12:01.447Z,99.99
2018-09-21T21:13:02.892Z,99.99
2018-09-21T21:14:04.202Z,99.99
2018-09-21T21:15:05.761Z,99.99
2018-09-21T21:16:10.521Z,99.99
2018-09-21T21:17:11.893Z,99.99
2018-09-21T21:18:13.285Z,99.99
2018-09-21T21:19:14.666Z,99.99
2018-09-21T21:20:16.066Z,99.99
2018-09-21T21:21:17.410Z,99.99
2018-09-21T21:22:18.830Z,99.99
2018-09-21T21:23:20.139Z,99.99
2018-09-21T21:24:21.522Z,99.99
2018-09-21T21:25:22.867Z,99.99
2018-09-21T21:26:24.251Z,99.99
2018-09-21T21:27:25.641Z,99.99
2018-09-21T21:28:29.442Z,99.99
2018-09-21T21:29:30.824Z,99.99
2018-09-21T21:30:32.205Z,99.99
2018-09-21T21:31:33.585Z,99.99
2018-09-21T21:32:34.972Z,99.99
2018-09-21T21:33:36.365Z,99.76
2018-09-21T21:34:39.096Z,99.37
2018-09-21T21:35:40.502Z,99.99
2018-09-21T21:36:41.904Z,99.99
2018-09-21T21:37:43.294Z,99.32
2018-09-21T21:38:44.680Z,99.61
2018-09-21T21:39:46.119Z,99.99
2018-09-21T21:40:47.522Z,99.80
2018-09-21T21:41:48.924Z,99.71
2018-09-21T21:42:50.495Z,99.13
2018-09-21T21:43:51.890Z,99.32
2018-09-21T21:44:53.277Z,98.75
2018-09-21T21:45:54.655Z,98.85
2018-09-21T21:46:56.039Z,98.85
2018-09-21T21:47:57.438Z,98.75
2018-09-21T21:48:58.825Z,98.94
2018-09-21T21:50:00.201Z,98.08
2018-09-21T21:51:01.587Z,98.08
2018-09-21T21:52:02.969Z,98.27
2018-09-21T21:53:04.354Z,97.42
2018-09-21T21:54:05.749Z,97.32
2018-09-21T21:55:07.138Z,97.89
2018-09-21T21:56:08.519Z,97.71
2018-09-21T21:57:09.903Z,97.51
2018-09-21T21:58:11.307Z,97.89
2018-09-21T21:59:12.698Z,98.56
2018-09-21T22:00:14.071Z,97.80
2018-09-21T22:01:15.463Z,98.56
2018-09-21T22:02:16.854Z,97.71
2018-09-21T22:03:20.636Z,97.51
2018-09-21T22:04:22.008Z,97.22
2018-09-21T22:05:23.393Z,96.94
2018-09-21T22:06:24.777Z,93.88
2018-09-21T22:07:26.160Z,93.51
2018-09-21T22:08:27.544Z,93.60
2018-09-21T22:09:28.936Z,93.12
2018-09-21T22:10:30.320Z,92.83
2018-09-21T22:11:31.707Z,92.93
2018-09-21T22:12:33.131Z,93.31
2018-09-21T22:13:34.538Z,92.93
2018-09-21T22:14:35.937Z,92.74
2018-09-21T22:15:37.406Z,92.83
2018-09-21T22:16:38.794Z,93.22
2018-09-21T22:17:40.194Z,92.41
2018-09-21T22:18:43.191Z,92.65
2018-09-21T22:19:45.002Z,92.65
2018-09-21T22:20:47.004Z,91.88
2018-09-21T22:21:49.679Z,91.31
2018-09-21T22:22:51.236Z,91.12
2018-09-21T22:23:53.289Z,91.50
2018-09-21T22:24:57.266Z,90.64
2018-09-21T22:25:58.671Z,90.07
2018-09-21T22:27:01.050Z,89.59
2018-09-21T22:28:02.871Z,88.64
2018-09-21T22:29:05.154Z,89.88
2018-09-21T22:30:06.868Z,89.50
2018-09-21T22:31:08.209Z,89.12
2018-09-21T22:32:09.855Z,88.92
2018-09-21T22:33:12.377Z,88.73
2018-09-21T22:34:14.163Z,87.97
2018-09-21T22:35:17.708Z,87.97
2018-09-21T22:36:19.229Z,88.16
2018-09-21T22:37:22.213Z,88.16
2018-09-21T22:38:27.004Z,87.40
2018-09-21T22:39:28.390Z,87.11
2018-09-21T22:40:33.222Z,86.82
2018-09-21T22:41:34.607Z,87.40
2018-09-21T22:42:36.008Z,87.11
2018-09-21T22:43:37.386Z,87.30
2018-09-21T22:44:41.608Z,87.11
2018-09-21T22:45:43.358Z,87.11
2018-09-21T22:46:48.241Z,87.11
2018-09-21T22:47:49.635Z,87.11
2018-09-21T22:48:51.246Z,85.77
2018-09-21T22:49:52.805Z,85.77
2018-09-21T22:50:54.187Z,86.44
2018-09-21T22:52:01.582Z,86.16
2018-09-21T22:53:06.257Z,85.30
2018-09-21T22:54:07.635Z,85.49
2018-09-21T22:55:09.013Z,85.39
2018-09-21T22:56:10.440Z,85.30
2018-09-21T22:57:11.821Z,85.77
2018-09-21T22:58:13.213Z,85.77
2018-09-21T22:59:14.588Z,85.77
2018-09-21T23:00:15.985Z,86.16
2018-09-21T23:01:17.371Z,86.16
2018-09-21T23:02:18.751Z,85.30
2018-09-21T23:03:20.139Z,84.92
2018-09-21T23:04:21.515Z,85.49
2018-09-21T23:05:22.895Z,85.58
2018-09-21T23:06:24.278Z,85.30
2018-09-21T23:07:27.230Z,84.82
2018-09-21T23:08:31.120Z,85.49
2018-09-21T23:09:32.498Z,84.01
2018-09-21T23:10:33.881Z,84.34
2018-09-21T23:11:38.227Z,84.30
2018-09-21T23:12:42.485Z,85.06
2018-09-21T23:13:47.669Z,85.25
2018-09-21T23:14:52.932Z,85.54
2018-09-21T23:15:54.319Z,84.40
2018-09-21T23:16:55.701Z,84.59
2018-09-21T23:17:57.085Z,84.88
2018-09-21T23:18:58.464Z,84.78
2018-09-21T23:19:59.812Z,84.49
2018-09-21T23:21:02.244Z,84.88
2018-09-21T23:22:06.627Z,84.88
2018-09-21T23:23:09.985Z,84.69
2018-09-21T23:24:11.371Z,84.59
2018-09-21T23:25:12.756Z,84.40
2018-09-21T23:26:14.135Z,84.88
2018-09-21T23:27:15.525Z,84.49
2018-09-21T23:28:18.077Z,84.78
2018-09-21T23:29:20.332Z,85.25
2018-09-21T23:30:24.308Z,85.06
2018-09-21T23:31:27.069Z,85.35
2018-09-21T23:32:30.346Z,85.25
2018-09-21T23:33:31.715Z,85.54
2018-09-21T23:34:33.091Z,85.93
2018-09-21T23:35:34.478Z,85.35
2018-09-21T23:36:35.860Z,85.25
2018-09-21T23:37:37.247Z,85.06
2018-09-21T23:38:38.625Z,85.83
2018-09-21T23:39:40.011Z,85.64
